sensor_id;sensor_type;location;lat;lon;timestamp;P1;durP1;ratioP1;P2;durP2;ratioP2
5876;SDS011;2964;42.144;24.730;2022-12-24T00:01:50;152.93;;;77.23;;
5876;SDS011;2964;42.144;24.730;2022-12-24T00:04:16;156.13;;;78.97;;
5876;SDS011;2964;42.144;24.730;2022-12-24T00:06:43;147.80;;;77.83;;
5876;SDS011;2964;42.144;24.730;2022-12-24T00:09:11;169.43;;;80.93;;
5876;SDS011;2964;42.144;24.730;2022-12-24T00:11:37;157.23;;;78.47;;
5876;SDS011;2964;42.144;24.730;2022-12-24T00:14:04;150.73;;;77.20;;
5876;SDS011;2964;42.144;24.730;2022-12-24T00:16:31;139.03;;;73.57;;
5876;SDS011;2964;42.144;24.730;2022-12-24T00:18:57;139.63;;;71.73;;
5876;SDS011;2964;42.144;24.730;2022-12-24T00:21:24;152.23;;;72.57;;
5876;SDS011;2964;42.144;24.730;2022-12-24T00:23:51;143.10;;;75.80;;
5876;SDS011;2964;42.144;24.730;2022-12-24T00:26:19;149.20;;;78.97;;
5876;SDS011;2964;42.144;24.730;2022-12-24T00:28:46;147.30;;;77.67;;
5876;SDS011;2964;42.144;24.730;2022-12-24T00:31:13;146.00;;;76.90;;
5876;SDS011;2964;42.144;24.730;2022-12-24T00:33:42;155.27;;;80.07;;
5876;SDS011;2964;42.144;24.730;2022-12-24T00:36:10;160.70;;;82.03;;
5876;SDS011;2964;42.144;24.730;2022-12-24T00:38:37;146.57;;;77.40;;
5876;SDS011;2964;42.144;24.730;2022-12-24T00:41:04;151.90;;;78.97;;
5876;SDS011;2964;42.144;24.730;2022-12-24T00:43:49;138.00;;;76.83;;
5876;SDS011;2964;42.144;24.730;2022-12-24T00:46:16;128.23;;;67.57;;
5876;SDS011;2964;42.144;24.730;2022-12-24T00:48:43;152.53;;;72.03;;
5876;SDS011;2964;42.144;24.730;2022-12-24T00:51:09;142.07;;;71.43;;
5876;SDS011;2964;42.144;24.730;2022-12-24T00:53:36;142.63;;;68.73;;
5876;SDS011;2964;42.144;24.730;2022-12-24T00:56:03;146.20;;;74.40;;
5876;SDS011;2964;42.144;24.730;2022-12-24T00:58:30;153.43;;;74.90;;
5876;SDS011;2964;42.144;24.730;2022-12-24T01:00:58;141.40;;;76.37;;
5876;SDS011;2964;42.144;24.730;2022-12-24T01:03:25;153.03;;;73.73;;
5876;SDS011;2964;42.144;24.730;2022-12-24T01:05:59;143.83;;;72.40;;
5876;SDS011;2964;42.144;24.730;2022-12-24T01:08:25;150.27;;;78.13;;
5876;SDS011;2964;42.144;24.730;2022-12-24T01:10:52;163.67;;;77.90;;
5876;SDS011;2964;42.144;24.730;2022-12-24T01:13:19;144.73;;;77.47;;
5876;SDS011;2964;42.144;24.730;2022-12-24T01:15:46;156.67;;;77.90;;
5876;SDS011;2964;42.144;24.730;2022-12-24T01:18:14;162.83;;;79.63;;
5876;SDS011;2964;42.144;24.730;2022-12-24T01:20:41;153.17;;;76.57;;
5876;SDS011;2964;42.144;24.730;2022-12-24T01:23:07;154.57;;;77.77;;
5876;SDS011;2964;42.144;24.730;2022-12-24T01:25:36;156.50;;;77.47;;
5876;SDS011;2964;42.144;24.730;2022-12-24T01:28:03;153.57;;;78.87;;
5876;SDS011;2964;42.144;24.730;2022-12-24T01:30:30;144.63;;;77.20;;
5876;SDS011;2964;42.144;24.730;2022-12-24T01:32:57;158.10;;;79.70;;
5876;SDS011;2964;42.144;24.730;2022-12-24T01:35:25;163.20;;;79.53;;
5876;SDS011;2964;42.144;24.730;2022-12-24T01:37:52;165.17;;;80.23;;
5876;SDS011;2964;42.144;24.730;2022-12-24T01:40:18;167.30;;;82.97;;
5876;SDS011;2964;42.144;24.730;2022-12-24T01:43:04;149.07;;;76.47;;
5876;SDS011;2964;42.144;24.730;2022-12-24T01:45:52;153.93;;;81.70;;
5876;SDS011;2964;42.144;24.730;2022-12-24T01:48:22;153.27;;;74.93;;
5876;SDS011;2964;42.144;24.730;2022-12-24T01:51:03;141.13;;;75.90;;
5876;SDS011;2964;42.144;24.730;2022-12-24T01:53:34;139.47;;;71.13;;
5876;SDS011;2964;42.144;24.730;2022-12-24T01:56:03;147.27;;;75.23;;
5876;SDS011;2964;42.144;24.730;2022-12-24T01:58:32;136.87;;;73.10;;
5876;SDS011;2964;42.144;24.730;2022-12-24T02:01:01;138.17;;;71.13;;
5876;SDS011;2964;42.144;24.730;2022-12-24T02:03:28;143.60;;;70.33;;
5876;SDS011;2964;42.144;24.730;2022-12-24T02:05:55;140.50;;;70.83;;
5876;SDS011;2964;42.144;24.730;2022-12-24T02:08:26;139.57;;;71.77;;
5876;SDS011;2964;42.144;24.730;2022-12-24T02:11:07;151.60;;;71.67;;
5876;SDS011;2964;42.144;24.730;2022-12-24T02:13:35;136.03;;;72.97;;
5876;SDS011;2964;42.144;24.730;2022-12-24T02:16:03;132.37;;;69.23;;
5876;SDS011;2964;42.144;24.730;2022-12-24T02:18:37;133.53;;;70.67;;
5876;SDS011;2964;42.144;24.730;2022-12-24T02:24:23;144.33;;;69.70;;
5876;SDS011;2964;42.144;24.730;2022-12-24T02:27:13;127.37;;;61.37;;
5876;SDS011;2964;42.144;24.730;2022-12-24T02:30:08;135.77;;;66.27;;
5876;SDS011;2964;42.144;24.730;2022-12-24T02:35:24;126.50;;;65.83;;
5876;SDS011;2964;42.144;24.730;2022-12-24T02:37:59;117.93;;;61.87;;
5876;SDS011;2964;42.144;24.730;2022-12-24T02:40:30;116.00;;;62.00;;
5876;SDS011;2964;42.144;24.730;2022-12-24T02:43:03;115.67;;;60.20;;
5876;SDS011;2964;42.144;24.730;2022-12-24T02:45:36;124.43;;;63.87;;
5876;SDS011;2964;42.144;24.730;2022-12-24T02:48:07;116.80;;;60.67;;
5876;SDS011;2964;42.144;24.730;2022-12-24T02:50:35;112.73;;;57.97;;
5876;SDS011;2964;42.144;24.730;2022-12-24T02:53:02;116.87;;;57.77;;
5876;SDS011;2964;42.144;24.730;2022-12-24T02:55:31;100.07;;;54.70;;
5876;SDS011;2964;42.144;24.730;2022-12-24T02:58:09;114.50;;;57.77;;
5876;SDS011;2964;42.144;24.730;2022-12-24T03:00:52;113.63;;;55.87;;
5876;SDS011;2964;42.144;24.730;2022-12-24T03:03:44;112.17;;;57.67;;
5876;SDS011;2964;42.144;24.730;2022-12-24T03:06:19;106.97;;;55.10;;
5876;SDS011;2964;42.144;24.730;2022-12-24T03:08:57;113.60;;;57.20;;
5876;SDS011;2964;42.144;24.730;2022-12-24T03:11:27;101.57;;;54.77;;
5876;SDS011;2964;42.144;24.730;2022-12-24T03:13:54;114.50;;;55.33;;
5876;SDS011;2964;42.144;24.730;2022-12-24T03:16:26;101.27;;;55.23;;
5876;SDS011;2964;42.144;24.730;2022-12-24T03:18:53;104.73;;;55.23;;
5876;SDS011;2964;42.144;24.730;2022-12-24T03:21:23;99.93;;;54.13;;
5876;SDS011;2964;42.144;24.730;2022-12-24T03:23:53;105.17;;;54.30;;
5876;SDS011;2964;42.144;24.730;2022-12-24T03:26:20;114.47;;;58.10;;
5876;SDS011;2964;42.144;24.730;2022-12-24T03:28:47;114.23;;;56.07;;
5876;SDS011;2964;42.144;24.730;2022-12-24T03:31:14;111.07;;;57.97;;
5876;SDS011;2964;42.144;24.730;2022-12-24T03:33:44;109.20;;;55.73;;
5876;SDS011;2964;42.144;24.730;2022-12-24T03:36:11;109.90;;;56.33;;
5876;SDS011;2964;42.144;24.730;2022-12-24T03:38:39;105.40;;;57.67;;
5876;SDS011;2964;42.144;24.730;2022-12-24T03:41:06;101.10;;;56.00;;
5876;SDS011;2964;42.144;24.730;2022-12-24T03:43:33;105.53;;;55.93;;
5876;SDS011;2964;42.144;24.730;2022-12-24T03:46:03;110.73;;;57.60;;
5876;SDS011;2964;42.144;24.730;2022-12-24T03:48:31;102.70;;;53.53;;
5876;SDS011;2964;42.144;24.730;2022-12-24T03:51:00;113.57;;;54.37;;
5876;SDS011;2964;42.144;24.730;2022-12-24T03:53:27;107.40;;;58.27;;
5876;SDS011;2964;42.144;24.730;2022-12-24T03:55:53;106.63;;;56.27;;
5876;SDS011;2964;42.144;24.730;2022-12-24T03:58:20;115.17;;;57.07;;
5876;SDS011;2964;42.144;24.730;2022-12-24T04:00:47;119.73;;;60.23;;
5876;SDS011;2964;42.144;24.730;2022-12-24T04:03:13;118.10;;;58.70;;
5876;SDS011;2964;42.144;24.730;2022-12-24T04:05:40;109.53;;;56.70;;
5876;SDS011;2964;42.144;24.730;2022-12-24T04:08:08;110.37;;;58.67;;
5876;SDS011;2964;42.144;24.730;2022-12-24T04:10:34;111.60;;;59.33;;
5876;SDS011;2964;42.144;24.730;2022-12-24T04:13:01;117.10;;;59.37;;
5876;SDS011;2964;42.144;24.730;2022-12-24T04:15:28;110.90;;;57.07;;
5876;SDS011;2964;42.144;24.730;2022-12-24T04:17:54;116.50;;;58.37;;
5876;SDS011;2964;42.144;24.730;2022-12-24T04:20:21;123.70;;;60.07;;
5876;SDS011;2964;42.144;24.730;2022-12-24T04:22:48;111.53;;;58.10;;
5876;SDS011;2964;42.144;24.730;2022-12-24T04:25:16;106.93;;;57.23;;
5876;SDS011;2964;42.144;24.730;2022-12-24T04:27:42;119.83;;;59.60;;
5876;SDS011;2964;42.144;24.730;2022-12-24T04:30:09;103.43;;;56.67;;
5876;SDS011;2964;42.144;24.730;2022-12-24T04:32:36;109.87;;;59.03;;
5876;SDS011;2964;42.144;24.730;2022-12-24T04:35:03;122.27;;;61.83;;
5876;SDS011;2964;42.144;24.730;2022-12-24T04:37:30;116.20;;;62.77;;
5876;SDS011;2964;42.144;24.730;2022-12-24T04:39:58;117.73;;;59.63;;
5876;SDS011;2964;42.144;24.730;2022-12-24T04:42:26;122.87;;;63.63;;
5876;SDS011;2964;42.144;24.730;2022-12-24T04:44:52;120.43;;;64.20;;
5876;SDS011;2964;42.144;24.730;2022-12-24T04:47:19;118.77;;;60.70;;
5876;SDS011;2964;42.144;24.730;2022-12-24T04:49:46;104.27;;;59.47;;
5876;SDS011;2964;42.144;24.730;2022-12-24T04:52:12;105.40;;;58.80;;
5876;SDS011;2964;42.144;24.730;2022-12-24T04:54:39;128.17;;;62.57;;
5876;SDS011;2964;42.144;24.730;2022-12-24T04:57:06;117.70;;;59.83;;
5876;SDS011;2964;42.144;24.730;2022-12-24T04:59:34;119.50;;;60.90;;
5876;SDS011;2964;42.144;24.730;2022-12-24T05:02:00;120.90;;;64.30;;
5876;SDS011;2964;42.144;24.730;2022-12-24T05:04:27;127.90;;;65.77;;
5876;SDS011;2964;42.144;24.730;2022-12-24T05:06:54;130.27;;;65.13;;
5876;SDS011;2964;42.144;24.730;2022-12-24T05:09:20;122.57;;;63.23;;
5876;SDS011;2964;42.144;24.730;2022-12-24T05:11:47;123.57;;;64.10;;
5876;SDS011;2964;42.144;24.730;2022-12-24T05:14:14;133.47;;;64.30;;
5876;SDS011;2964;42.144;24.730;2022-12-24T05:16:42;136.70;;;65.43;;
5876;SDS011;2964;42.144;24.730;2022-12-24T05:19:09;136.20;;;64.73;;
5876;SDS011;2964;42.144;24.730;2022-12-24T05:21:35;129.13;;;67.40;;
5876;SDS011;2964;42.144;24.730;2022-12-24T05:24:02;123.13;;;62.13;;
5876;SDS011;2964;42.144;24.730;2022-12-24T05:26:47;118.10;;;62.63;;
5876;SDS011;2964;42.144;24.730;2022-12-24T05:29:16;122.83;;;62.37;;
5876;SDS011;2964;42.144;24.730;2022-12-24T05:31:44;127.53;;;66.27;;
5876;SDS011;2964;42.144;24.730;2022-12-24T05:34:11;141.33;;;75.43;;
5876;SDS011;2964;42.144;24.730;2022-12-24T05:36:39;142.37;;;69.53;;
5876;SDS011;2964;42.144;24.730;2022-12-24T05:39:06;132.43;;;73.87;;
5876;SDS011;2964;42.144;24.730;2022-12-24T05:41:33;121.37;;;68.00;;
5876;SDS011;2964;42.144;24.730;2022-12-24T05:44:00;130.23;;;69.23;;
5876;SDS011;2964;42.144;24.730;2022-12-24T05:46:26;123.10;;;64.67;;
5876;SDS011;2964;42.144;24.730;2022-12-24T05:48:54;120.73;;;62.33;;
5876;SDS011;2964;42.144;24.730;2022-12-24T05:51:21;123.63;;;65.17;;
5876;SDS011;2964;42.144;24.730;2022-12-24T05:53:49;129.37;;;64.13;;
5876;SDS011;2964;42.144;24.730;2022-12-24T05:56:17;120.63;;;65.17;;
5876;SDS011;2964;42.144;24.730;2022-12-24T05:58:49;131.13;;;62.73;;
5876;SDS011;2964;42.144;24.730;2022-12-24T06:01:16;126.67;;;62.67;;
5876;SDS011;2964;42.144;24.730;2022-12-24T06:03:43;133.50;;;63.60;;
5876;SDS011;2964;42.144;24.730;2022-12-24T06:06:11;135.93;;;64.53;;
5876;SDS011;2964;42.144;24.730;2022-12-24T06:08:40;124.00;;;64.07;;
5876;SDS011;2964;42.144;24.730;2022-12-24T06:11:07;133.03;;;65.10;;
5876;SDS011;2964;42.144;24.730;2022-12-24T06:13:36;120.47;;;61.07;;
5876;SDS011;2964;42.144;24.730;2022-12-24T06:16:04;108.10;;;62.90;;
5876;SDS011;2964;42.144;24.730;2022-12-24T06:18:32;119.37;;;61.87;;
5876;SDS011;2964;42.144;24.730;2022-12-24T06:21:00;112.43;;;61.83;;
5876;SDS011;2964;42.144;24.730;2022-12-24T06:23:29;123.93;;;63.50;;
5876;SDS011;2964;42.144;24.730;2022-12-24T06:25:59;113.00;;;62.17;;
5876;SDS011;2964;42.144;24.730;2022-12-24T06:28:27;123.63;;;62.33;;
5876;SDS011;2964;42.144;24.730;2022-12-24T06:30:54;117.07;;;60.97;;
5876;SDS011;2964;42.144;24.730;2022-12-24T06:33:21;121.37;;;63.37;;
5876;SDS011;2964;42.144;24.730;2022-12-24T06:35:47;126.10;;;59.63;;
5876;SDS011;2964;42.144;24.730;2022-12-24T06:38:14;104.10;;;57.23;;
5876;SDS011;2964;42.144;24.730;2022-12-24T06:40:43;106.90;;;57.67;;
5876;SDS011;2964;42.144;24.730;2022-12-24T06:43:11;106.20;;;58.27;;
5876;SDS011;2964;42.144;24.730;2022-12-24T06:45:39;122.00;;;59.17;;
5876;SDS011;2964;42.144;24.730;2022-12-24T06:48:09;106.03;;;58.93;;
5876;SDS011;2964;42.144;24.730;2022-12-24T06:50:36;125.00;;;58.93;;
5876;SDS011;2964;42.144;24.730;2022-12-24T06:53:03;114.70;;;59.20;;
5876;SDS011;2964;42.144;24.730;2022-12-24T06:55:30;117.70;;;59.13;;
5876;SDS011;2964;42.144;24.730;2022-12-24T06:57:59;109.20;;;58.43;;
5876;SDS011;2964;42.144;24.730;2022-12-24T07:00:25;111.30;;;57.27;;
5876;SDS011;2964;42.144;24.730;2022-12-24T07:02:52;110.97;;;55.93;;
5876;SDS011;2964;42.144;24.730;2022-12-24T07:05:19;110.87;;;58.53;;
5876;SDS011;2964;42.144;24.730;2022-12-24T07:07:45;109.77;;;59.27;;
5876;SDS011;2964;42.144;24.730;2022-12-24T07:10:13;112.37;;;57.50;;
5876;SDS011;2964;42.144;24.730;2022-12-24T07:12:41;107.77;;;56.93;;
5876;SDS011;2964;42.144;24.730;2022-12-24T07:15:10;103.77;;;54.67;;
5876;SDS011;2964;42.144;24.730;2022-12-24T07:17:37;97.33;;;53.83;;
5876;SDS011;2964;42.144;24.730;2022-12-24T07:20:06;101.40;;;51.87;;
5876;SDS011;2964;42.144;24.730;2022-12-24T07:22:35;107.10;;;53.77;;
5876;SDS011;2964;42.144;24.730;2022-12-24T07:25:02;96.43;;;52.83;;
5876;SDS011;2964;42.144;24.730;2022-12-24T07:27:29;97.80;;;52.27;;
5876;SDS011;2964;42.144;24.730;2022-12-24T07:29:56;98.20;;;50.17;;
5876;SDS011;2964;42.144;24.730;2022-12-24T07:32:24;95.63;;;51.10;;
5876;SDS011;2964;42.144;24.730;2022-12-24T07:34:50;92.63;;;49.53;;
5876;SDS011;2964;42.144;24.730;2022-12-24T07:37:17;88.07;;;49.20;;
5876;SDS011;2964;42.144;24.730;2022-12-24T07:39:44;83.47;;;47.00;;
5876;SDS011;2964;42.144;24.730;2022-12-24T07:42:10;74.27;;;45.87;;
5876;SDS011;2964;42.144;24.730;2022-12-24T07:44:37;84.80;;;44.37;;
5876;SDS011;2964;42.144;24.730;2022-12-24T07:47:04;73.70;;;42.80;;
5876;SDS011;2964;42.144;24.730;2022-12-24T07:49:32;69.33;;;40.83;;
5876;SDS011;2964;42.144;24.730;2022-12-24T07:52:00;67.33;;;42.37;;
5876;SDS011;2964;42.144;24.730;2022-12-24T07:54:27;69.63;;;42.53;;
5876;SDS011;2964;42.144;24.730;2022-12-24T07:56:53;65.87;;;39.30;;
5876;SDS011;2964;42.144;24.730;2022-12-24T07:59:20;66.63;;;42.13;;
5876;SDS011;2964;42.144;24.730;2022-12-24T08:01:47;72.43;;;40.60;;
5876;SDS011;2964;42.144;24.730;2022-12-24T08:04:14;69.83;;;39.67;;
5876;SDS011;2964;42.144;24.730;2022-12-24T08:06:42;54.87;;;35.30;;
5876;SDS011;2964;42.144;24.730;2022-12-24T08:09:09;60.43;;;37.73;;
5876;SDS011;2964;42.144;24.730;2022-12-24T08:11:38;60.07;;;37.00;;
5876;SDS011;2964;42.144;24.730;2022-12-24T08:14:05;61.97;;;34.77;;
5876;SDS011;2964;42.144;24.730;2022-12-24T08:16:31;59.17;;;36.83;;
5876;SDS011;2964;42.144;24.730;2022-12-24T08:19:01;48.27;;;32.47;;
5876;SDS011;2964;42.144;24.730;2022-12-24T08:21:30;54.60;;;33.50;;
5876;SDS011;2964;42.144;24.730;2022-12-24T08:23:58;50.60;;;33.47;;
5876;SDS011;2964;42.144;24.730;2022-12-24T08:26:25;53.53;;;34.47;;
5876;SDS011;2964;42.144;24.730;2022-12-24T08:28:52;56.43;;;36.27;;
5876;SDS011;2964;42.144;24.730;2022-12-24T08:31:18;65.47;;;38.27;;
5876;SDS011;2964;42.144;24.730;2022-12-24T08:33:45;62.87;;;35.30;;
5876;SDS011;2964;42.144;24.730;2022-12-24T08:36:13;54.30;;;34.57;;
5876;SDS011;2964;42.144;24.730;2022-12-24T08:38:39;52.77;;;33.10;;
5876;SDS011;2964;42.144;24.730;2022-12-24T08:41:07;49.67;;;34.03;;
5876;SDS011;2964;42.144;24.730;2022-12-24T08:43:34;52.57;;;32.37;;
5876;SDS011;2964;42.144;24.730;2022-12-24T08:46:01;43.33;;;31.63;;
5876;SDS011;2964;42.144;24.730;2022-12-24T08:48:33;48.53;;;32.57;;
5876;SDS011;2964;42.144;24.730;2022-12-24T08:51:05;43.47;;;30.57;;
5876;SDS011;2964;42.144;24.730;2022-12-24T08:53:32;44.53;;;30.73;;
5876;SDS011;2964;42.144;24.730;2022-12-24T08:56:03;47.77;;;30.93;;
5876;SDS011;2964;42.144;24.730;2022-12-24T08:58:32;47.57;;;30.67;;
5876;SDS011;2964;42.144;24.730;2022-12-24T09:00:59;45.07;;;32.27;;
5876;SDS011;2964;42.144;24.730;2022-12-24T09:03:26;50.47;;;30.37;;
5876;SDS011;2964;42.144;24.730;2022-12-24T09:05:53;41.87;;;30.47;;
5876;SDS011;2964;42.144;24.730;2022-12-24T09:08:20;44.67;;;30.87;;
5876;SDS011;2964;42.144;24.730;2022-12-24T09:10:46;44.47;;;30.73;;
5876;SDS011;2964;42.144;24.730;2022-12-24T09:13:13;48.00;;;30.20;;
5876;SDS011;2964;42.144;24.730;2022-12-24T09:15:50;41.13;;;27.23;;
5876;SDS011;2964;42.144;24.730;2022-12-24T09:18:18;35.90;;;24.37;;
5876;SDS011;2964;42.144;24.730;2022-12-24T09:20:45;30.57;;;23.10;;
5876;SDS011;2964;42.144;24.730;2022-12-24T09:23:11;34.97;;;23.47;;
5876;SDS011;2964;42.144;24.730;2022-12-24T09:25:39;27.70;;;22.17;;
5876;SDS011;2964;42.144;24.730;2022-12-24T09:28:06;32.20;;;23.30;;
5876;SDS011;2964;42.144;24.730;2022-12-24T09:30:34;32.57;;;22.77;;
5876;SDS011;2964;42.144;24.730;2022-12-24T09:33:04;32.33;;;23.50;;
5876;SDS011;2964;42.144;24.730;2022-12-24T09:35:36;30.90;;;23.13;;
5876;SDS011;2964;42.144;24.730;2022-12-24T09:38:03;30.73;;;22.73;;
5876;SDS011;2964;42.144;24.730;2022-12-24T09:40:34;31.30;;;21.73;;
5876;SDS011;2964;42.144;24.730;2022-12-24T09:43:05;32.60;;;22.07;;
5876;SDS011;2964;42.144;24.730;2022-12-24T09:45:40;32.73;;;21.77;;
5876;SDS011;2964;42.144;24.730;2022-12-24T09:48:13;29.33;;;20.87;;
5876;SDS011;2964;42.144;24.730;2022-12-24T09:50:45;26.27;;;19.77;;
5876;SDS011;2964;42.144;24.730;2022-12-24T09:53:17;25.37;;;19.87;;
5876;SDS011;2964;42.144;24.730;2022-12-24T09:55:48;24.73;;;19.00;;
5876;SDS011;2964;42.144;24.730;2022-12-24T09:58:18;26.90;;;19.63;;
5876;SDS011;2964;42.144;24.730;2022-12-24T10:00:48;26.60;;;19.40;;
5876;SDS011;2964;42.144;24.730;2022-12-24T10:03:18;28.50;;;21.23;;
5876;SDS011;2964;42.144;24.730;2022-12-24T10:05:46;23.43;;;19.23;;
5876;SDS011;2964;42.144;24.730;2022-12-24T10:08:23;25.97;;;19.13;;
5876;SDS011;2964;42.144;24.730;2022-12-24T10:10:58;24.93;;;18.87;;
5876;SDS011;2964;42.144;24.730;2022-12-24T10:13:31;27.70;;;20.40;;
5876;SDS011;2964;42.144;24.730;2022-12-24T10:16:08;29.43;;;20.83;;
5876;SDS011;2964;42.144;24.730;2022-12-24T10:18:47;28.13;;;19.43;;
5876;SDS011;2964;42.144;24.730;2022-12-24T10:21:23;26.27;;;19.70;;
5876;SDS011;2964;42.144;24.730;2022-12-24T10:23:59;24.83;;;19.33;;
5876;SDS011;2964;42.144;24.730;2022-12-24T10:26:33;26.57;;;19.87;;
5876;SDS011;2964;42.144;24.730;2022-12-24T10:29:11;24.67;;;18.27;;
5876;SDS011;2964;42.144;24.730;2022-12-24T10:31:43;28.40;;;20.13;;
5876;SDS011;2964;42.144;24.730;2022-12-24T10:34:20;34.60;;;22.13;;
5876;SDS011;2964;42.144;24.730;2022-12-24T10:36:49;31.87;;;21.67;;
5876;SDS011;2964;42.144;24.730;2022-12-24T10:39:17;32.60;;;22.03;;
5876;SDS011;2964;42.144;24.730;2022-12-24T10:41:46;28.50;;;20.30;;
5876;SDS011;2964;42.144;24.730;2022-12-24T10:44:15;32.30;;;21.77;;
5876;SDS011;2964;42.144;24.730;2022-12-24T10:46:44;29.67;;;22.03;;
5876;SDS011;2964;42.144;24.730;2022-12-24T10:49:12;28.90;;;22.60;;
5876;SDS011;2964;42.144;24.730;2022-12-24T10:51:42;30.20;;;23.27;;
5876;SDS011;2964;42.144;24.730;2022-12-24T10:54:13;27.33;;;22.60;;
5876;SDS011;2964;42.144;24.730;2022-12-24T10:56:42;31.03;;;23.40;;
5876;SDS011;2964;42.144;24.730;2022-12-24T10:59:22;36.77;;;23.60;;
5876;SDS011;2964;42.144;24.730;2022-12-24T11:01:51;38.93;;;25.13;;
5876;SDS011;2964;42.144;24.730;2022-12-24T11:04:18;35.83;;;26.27;;
5876;SDS011;2964;42.144;24.730;2022-12-24T11:06:55;44.27;;;29.53;;
5876;SDS011;2964;42.144;24.730;2022-12-24T11:09:23;54.00;;;35.27;;
5876;SDS011;2964;42.144;24.730;2022-12-24T11:11:52;49.67;;;35.30;;
5876;SDS011;2964;42.144;24.730;2022-12-24T11:14:20;51.47;;;35.90;;
5876;SDS011;2964;42.144;24.730;2022-12-24T11:16:48;61.30;;;37.50;;
5876;SDS011;2964;42.144;24.730;2022-12-24T11:19:18;64.80;;;37.00;;
5876;SDS011;2964;42.144;24.730;2022-12-24T11:21:47;54.93;;;36.43;;
5876;SDS011;2964;42.144;24.730;2022-12-24T11:24:25;62.03;;;36.13;;
5876;SDS011;2964;42.144;24.730;2022-12-24T11:26:54;54.10;;;36.60;;
5876;SDS011;2964;42.144;24.730;2022-12-24T11:35:42;61.20;;;38.10;;
5876;SDS011;2964;42.144;24.730;2022-12-24T11:38:16;61.50;;;37.83;;
5876;SDS011;2964;42.144;24.730;2022-12-24T11:40:46;62.40;;;38.37;;
5876;SDS011;2964;42.144;24.730;2022-12-24T11:43:14;68.80;;;39.60;;
5876;SDS011;2964;42.144;24.730;2022-12-24T11:45:48;64.47;;;37.43;;
5876;SDS011;2964;42.144;24.730;2022-12-24T11:48:23;55.87;;;34.80;;
5876;SDS011;2964;42.144;24.730;2022-12-24T11:50:54;55.80;;;34.23;;
5876;SDS011;2964;42.144;24.730;2022-12-24T11:53:23;54.10;;;31.43;;
5876;SDS011;2964;42.144;24.730;2022-12-24T11:55:54;48.67;;;33.17;;
5876;SDS011;2964;42.144;24.730;2022-12-24T11:58:23;47.53;;;32.43;;
5876;SDS011;2964;42.144;24.730;2022-12-24T12:00:59;52.63;;;35.87;;
5876;SDS011;2964;42.144;24.730;2022-12-24T12:03:38;47.93;;;32.20;;
5876;SDS011;2964;42.144;24.730;2022-12-24T12:06:22;65.63;;;35.37;;
5876;SDS011;2964;42.144;24.730;2022-12-24T12:08:55;56.80;;;32.93;;
5876;SDS011;2964;42.144;24.730;2022-12-24T12:11:33;47.40;;;29.33;;
5876;SDS011;2964;42.144;24.730;2022-12-24T12:14:03;50.57;;;33.33;;
5876;SDS011;2964;42.144;24.730;2022-12-24T12:16:34;56.73;;;35.43;;
5876;SDS011;2964;42.144;24.730;2022-12-24T12:19:29;55.97;;;35.10;;
5876;SDS011;2964;42.144;24.730;2022-12-24T12:22:15;64.43;;;36.33;;
5876;SDS011;2964;42.144;24.730;2022-12-24T12:24:52;52.00;;;32.67;;
5876;SDS011;2964;42.144;24.730;2022-12-24T12:27:26;52.87;;;35.40;;
5876;SDS011;2964;42.144;24.730;2022-12-24T12:30:05;48.17;;;33.60;;
5876;SDS011;2964;42.144;24.730;2022-12-24T12:32:43;52.73;;;32.37;;
5876;SDS011;2964;42.144;24.730;2022-12-24T12:35:15;50.57;;;33.53;;
5876;SDS011;2964;42.144;24.730;2022-12-24T12:38:00;54.10;;;33.77;;
5876;SDS011;2964;42.144;24.730;2022-12-24T12:40:36;56.53;;;34.30;;
5876;SDS011;2964;42.144;24.730;2022-12-24T12:43:16;54.33;;;34.03;;
5876;SDS011;2964;42.144;24.730;2022-12-24T12:45:52;57.73;;;36.37;;
5876;SDS011;2964;42.144;24.730;2022-12-24T12:48:35;56.43;;;35.43;;
5876;SDS011;2964;42.144;24.730;2022-12-24T12:51:21;61.50;;;35.10;;
5876;SDS011;2964;42.144;24.730;2022-12-24T12:53:59;50.57;;;33.30;;
5876;SDS011;2964;42.144;24.730;2022-12-24T12:56:37;55.87;;;33.20;;
5876;SDS011;2964;42.144;24.730;2022-12-24T12:59:12;48.50;;;31.03;;
5876;SDS011;2964;42.144;24.730;2022-12-24T13:01:44;44.80;;;32.13;;
5876;SDS011;2964;42.144;24.730;2022-12-24T13:04:24;59.07;;;32.33;;
5876;SDS011;2964;42.144;24.730;2022-12-24T13:07:23;53.37;;;31.10;;
5876;SDS011;2964;42.144;24.730;2022-12-24T13:10:17;41.97;;;30.07;;
5876;SDS011;2964;42.144;24.730;2022-12-24T13:13:07;52.23;;;30.90;;
5876;SDS011;2964;42.144;24.730;2022-12-24T13:15:53;48.07;;;31.53;;
5876;SDS011;2964;42.144;24.730;2022-12-24T13:21:24;44.97;;;30.90;;
5876;SDS011;2964;42.144;24.730;2022-12-24T13:24:03;43.50;;;30.10;;
5876;SDS011;2964;42.144;24.730;2022-12-24T13:26:31;47.13;;;30.60;;
5876;SDS011;2964;42.144;24.730;2022-12-24T13:29:11;53.43;;;30.37;;
5876;SDS011;2964;42.144;24.730;2022-12-24T13:31:58;42.70;;;29.07;;
5876;SDS011;2964;42.144;24.730;2022-12-24T13:35:30;50.03;;;32.83;;
5876;SDS011;2964;42.144;24.730;2022-12-24T13:44:25;52.80;;;32.97;;
5876;SDS011;2964;42.144;24.730;2022-12-24T13:49:47;52.80;;;34.30;;
5876;SDS011;2964;42.144;24.730;2022-12-24T13:52:26;50.10;;;32.27;;
5876;SDS011;2964;42.144;24.730;2022-12-24T13:57:52;48.07;;;30.90;;
5876;SDS011;2964;42.144;24.730;2022-12-24T14:00:24;48.43;;;30.93;;
5876;SDS011;2964;42.144;24.730;2022-12-24T14:03:16;50.47;;;31.03;;
5876;SDS011;2964;42.144;24.730;2022-12-24T14:05:50;56.13;;;31.97;;
5876;SDS011;2964;42.144;24.730;2022-12-24T14:11:06;53.07;;;32.23;;
5876;SDS011;2964;42.144;24.730;2022-12-24T14:16:43;58.13;;;35.90;;
5876;SDS011;2964;42.144;24.730;2022-12-24T14:19:14;62.50;;;36.40;;
5876;SDS011;2964;42.144;24.730;2022-12-24T14:21:48;64.10;;;35.53;;
5876;SDS011;2964;42.144;24.730;2022-12-24T14:24:21;56.73;;;33.97;;
5876;SDS011;2964;42.144;24.730;2022-12-24T14:26:53;54.47;;;35.33;;
5876;SDS011;2964;42.144;24.730;2022-12-24T14:29:25;58.00;;;34.67;;
5876;SDS011;2964;42.144;24.730;2022-12-24T14:31:56;59.10;;;35.77;;
5876;SDS011;2964;42.144;24.730;2022-12-24T14:34:28;63.70;;;36.67;;
5876;SDS011;2964;42.144;24.730;2022-12-24T14:36:56;61.87;;;36.10;;
5876;SDS011;2964;42.144;24.730;2022-12-24T14:39:27;61.67;;;38.43;;
5876;SDS011;2964;42.144;24.730;2022-12-24T14:42:00;60.13;;;36.23;;
5876;SDS011;2964;42.144;24.730;2022-12-24T14:44:35;65.20;;;37.27;;
5876;SDS011;2964;42.144;24.730;2022-12-24T14:47:14;57.57;;;37.57;;
5876;SDS011;2964;42.144;24.730;2022-12-24T14:49:52;67.33;;;36.97;;
5876;SDS011;2964;42.144;24.730;2022-12-24T14:52:32;75.30;;;41.27;;
5876;SDS011;2964;42.144;24.730;2022-12-24T14:58:15;70.33;;;42.17;;
5876;SDS011;2964;42.144;24.730;2022-12-24T15:00:45;82.53;;;43.60;;
5876;SDS011;2964;42.144;24.730;2022-12-24T15:03:12;80.07;;;42.13;;
5876;SDS011;2964;42.144;24.730;2022-12-24T15:05:40;69.83;;;43.40;;
5876;SDS011;2964;42.144;24.730;2022-12-24T15:08:11;75.83;;;40.23;;
5876;SDS011;2964;42.144;24.730;2022-12-24T15:10:41;73.37;;;41.20;;
5876;SDS011;2964;42.144;24.730;2022-12-24T15:13:13;81.23;;;43.03;;
5876;SDS011;2964;42.144;24.730;2022-12-24T15:15:48;73.37;;;40.53;;
5876;SDS011;2964;42.144;24.730;2022-12-24T15:18:18;76.80;;;43.37;;
5876;SDS011;2964;42.144;24.730;2022-12-24T15:20:49;82.13;;;41.77;;
5876;SDS011;2964;42.144;24.730;2022-12-24T15:23:25;81.00;;;43.17;;
5876;SDS011;2964;42.144;24.730;2022-12-24T15:26:04;96.70;;;48.80;;